createdAt,value
2019-03-12T00:00:56.535Z,83.99
2019-03-12T00:03:26.266Z,83.99
2019-03-12T00:05:55.994Z,83.93
2019-03-12T00:08:25.888Z,83.87
2019-03-12T00:10:55.566Z,83.87
2019-03-12T00:13:25.232Z,83.83
2019-03-12T00:15:54.904Z,83.90
2019-03-12T00:18:24.557Z,83.89
2019-03-12T00:20:54.221Z,83.64
2019-03-12T00:23:24.111Z,83.55
2019-03-12T00:25:53.777Z,83.64
2019-03-12T00:28:23.449Z,83.63
2019-03-12T00:30:53.289Z,83.59
2019-03-12T00:33:22.925Z,83.76
2019-03-12T00:35:52.825Z,83.73
2019-03-12T00:38:22.504Z,83.94
2019-03-12T00:40:52.167Z,84.11
2019-03-12T00:43:21.856Z,84.18
2019-03-12T00:45:51.510Z,84.16
2019-03-12T00:48:21.180Z,84.06
2019-03-12T00:50:50.853Z,83.99
2019-03-12T00:53:20.528Z,83.93
2019-03-12T00:55:50.272Z,84.04
2019-03-12T00:58:19.938Z,83.90
2019-03-12T01:00:49.599Z,83.77
2019-03-12T01:03:19.257Z,83.87
2019-03-12T01:05:49.297Z,83.95
2019-03-12T01:08:18.959Z,83.92
2019-03-12T01:10:48.621Z,83.85
2019-03-12T01:13:18.987Z,83.70
2019-03-12T01:15:49.690Z,83.58
2019-03-12T01:18:19.457Z,83.46
2019-03-12T01:20:49.508Z,83.45
2019-03-12T01:23:20.153Z,83.48
2019-03-12T01:25:49.824Z,83.55
2019-03-12T01:28:19.895Z,83.63
2019-03-12T01:30:49.555Z,83.62
2019-03-12T01:33:19.218Z,83.52
2019-03-12T01:35:48.900Z,83.59
2019-03-12T01:38:18.566Z,83.54
2019-03-12T01:40:48.483Z,83.51
2019-03-12T01:43:18.472Z,83.52
2019-03-12T01:45:48.200Z,83.45
2019-03-12T01:48:17.885Z,83.44
2019-03-12T01:50:47.540Z,83.37
2019-03-12T01:53:17.209Z,83.31
2019-03-12T01:55:46.885Z,83.25
2019-03-12T01:58:16.547Z,83.23
2019-03-12T02:00:46.287Z,83.35
2019-03-12T02:03:15.964Z,83.38
2019-03-12T02:05:45.632Z,83.27
2019-03-12T02:08:15.768Z,83.31
2019-03-12T02:10:45.424Z,83.35
2019-03-12T02:13:15.324Z,83.39
2019-03-12T02:15:45.305Z,83.35
2019-03-12T02:18:15.213Z,83.13
2019-03-12T02:20:44.882Z,83.17
2019-03-12T02:23:14.548Z,83.20
2019-03-12T02:25:45.181Z,83.21
2019-03-12T02:28:14.865Z,83.31
2019-03-12T02:30:44.602Z,83.44
2019-03-12T02:33:14.345Z,83.87
2019-03-12T02:35:44.244Z,83.71
2019-03-12T02:38:13.997Z,83.49
2019-03-12T02:40:43.659Z,83.49
2019-03-12T02:43:13.309Z,83.54
2019-03-12T02:45:42.965Z,83.40
2019-03-12T02:48:12.650Z,83.43
2019-03-12T02:50:42.317Z,83.50
2019-03-12T02:53:12.003Z,83.53
2019-03-12T02:55:41.668Z,83.58
2019-03-12T02:58:11.325Z,83.59
2019-03-12T03:00:41.257Z,83.66
2019-03-12T03:03:10.955Z,83.81
2019-03-12T03:05:56.166Z,83.85
2019-03-12T03:08:29.874Z,83.85
2019-03-12T03:10:59.614Z,83.88
2019-03-12T03:13:29.327Z,83.92
2019-03-12T03:15:59.005Z,84.00
2019-03-12T03:18:29.215Z,84.02
2019-03-12T03:20:59.351Z,84.09
2019-03-12T03:23:29.094Z,84.05
2019-03-12T03:25:58.713Z,84.09
2019-03-12T03:28:28.385Z,84.19
2019-03-12T03:30:58.074Z,84.36
2019-03-12T03:33:27.734Z,84.35
2019-03-12T03:35:57.399Z,84.40
2019-03-12T03:38:27.141Z,84.42
2019-03-12T03:40:56.888Z,84.47
2019-03-12T03:43:26.546Z,84.42
2019-03-12T03:45:56.229Z,84.43
2019-03-12T03:48:25.967Z,84.50
2019-03-12T03:50:56.683Z,84.56
2019-03-12T03:53:26.354Z,84.51
2019-03-12T03:55:56.034Z,84.51
2019-03-12T03:58:26.004Z,84.53
2019-03-12T04:00:55.727Z,84.50
2019-03-12T04:03:25.392Z,84.42
2019-03-12T04:05:55.156Z,84.38
2019-03-12T04:08:24.841Z,84.40
2019-03-12T04:10:54.521Z,84.42
2019-03-12T04:13:24.191Z,84.50
2019-03-12T04:15:53.876Z,84.61
2019-03-12T04:18:23.537Z,84.51
2019-03-12T04:20:53.215Z,84.47
2019-03-12T04:23:22.897Z,84.51
2019-03-12T04:25:52.562Z,84.41
2019-03-12T04:28:22.228Z,84.31
2019-03-12T04:30:51.923Z,84.30
2019-03-12T04:34:16.800Z,84.21
2019-03-12T04:36:47.698Z,84.28
2019-03-12T04:39:17.719Z,84.27
2019-03-12T04:41:47.374Z,84.49
2019-03-12T04:44:17.126Z,84.51
2019-03-12T04:46:47.896Z,84.47
2019-03-12T04:49:17.560Z,84.39
2019-03-12T04:51:47.239Z,84.42
2019-03-12T04:54:17.012Z,84.42
2019-03-12T04:56:46.703Z,84.42
2019-03-12T04:59:16.367Z,84.30
2019-03-12T05:01:46.320Z,84.24
2019-03-12T05:04:15.982Z,84.04
2019-03-12T05:06:46.634Z,83.93
2019-03-12T05:09:16.579Z,83.72
2019-03-12T05:11:46.269Z,83.72
2019-03-12T05:14:34.877Z,84.11
2019-03-12T05:17:25.054Z,84.20
2019-03-12T05:19:54.721Z,84.23
2019-03-12T05:22:25.261Z,84.18
2019-03-12T05:24:55.235Z,84.21
2019-03-12T05:27:25.178Z,84.20
2019-03-12T05:29:54.881Z,84.25
2019-03-12T05:32:24.642Z,84.28
2019-03-12T05:34:54.314Z,84.19
2019-03-12T05:37:24.312Z,84.35
2019-03-12T05:39:53.999Z,84.36
2019-03-12T05:42:23.747Z,84.41
2019-03-12T05:44:53.373Z,84.40
2019-03-12T05:47:24.138Z,84.32
2019-03-12T05:49:54.073Z,84.27
2019-03-12T05:52:23.747Z,84.25
2019-03-12T05:54:53.469Z,84.37
2019-03-12T05:57:23.153Z,84.46
2019-03-12T05:59:52.816Z,84.45
2019-03-12T06:02:22.754Z,84.41
2019-03-12T06:04:52.420Z,84.46
2019-03-12T06:07:22.114Z,84.38
2019-03-12T06:09:51.796Z,84.30
2019-03-12T06:12:21.469Z,84.38
2019-03-12T06:14:51.156Z,84.44
2019-03-12T06:17:21.061Z,84.51
2019-03-12T06:19:50.895Z,84.51
2019-03-12T06:22:20.818Z,84.95
2019-03-12T06:24:50.529Z,84.95
2019-03-12T06:27:20.449Z,84.83
2019-03-12T06:29:50.117Z,84.92
2019-03-12T06:32:41.592Z,85.00
2019-03-12T06:35:28.666Z,84.94
2019-03-12T06:38:29.745Z,84.80
2019-03-12T06:41:28.281Z,85.02
2019-03-12T06:44:07.712Z,85.09
2019-03-12T06:46:54.812Z,85.15
2019-03-12T06:49:33.357Z,84.96
2019-03-12T06:52:29.008Z,84.83
2019-03-12T06:55:24.256Z,84.79
2019-03-12T06:58:24.845Z,84.55
2019-03-12T07:01:02.223Z,84.47
2019-03-12T07:03:49.595Z,84.41
2019-03-12T07:06:31.047Z,84.17
2019-03-12T07:09:18.399Z,84.03
2019-03-12T07:11:54.664Z,83.66
2019-03-12T07:14:28.802Z,83.72
2019-03-12T07:17:29.561Z,83.15
2019-03-12T07:20:20.164Z,83.01
2019-03-12T07:23:23.885Z,82.74
2019-03-12T07:26:21.331Z,82.79
2019-03-12T07:29:12.797Z,81.94
2019-03-12T07:31:59.882Z,81.75
2019-03-12T07:34:40.752Z,81.50
2019-03-12T07:37:25.056Z,81.50
2019-03-12T07:40:31.787Z,81.82
2019-03-12T07:43:06.964Z,81.75
2019-03-12T07:45:42.447Z,82.48
2019-03-12T07:48:19.838Z,83.02
2019-03-12T07:51:03.502Z,83.02
2019-03-12T07:53:43.530Z,83.60
2019-03-12T07:56:31.525Z,83.40
2019-03-12T07:59:18.917Z,83.96
2019-03-12T08:02:19.708Z,84.36
2019-03-12T08:05:11.523Z,84.47
2019-03-12T08:08:06.053Z,84.73
2019-03-12T08:10:59.245Z,85.26
2019-03-12T08:13:57.005Z,85.42
2019-03-12T08:16:54.841Z,86.11
2019-03-12T08:19:42.361Z,86.51
2019-03-12T08:22:49.141Z,86.48
2019-03-12T08:25:27.061Z,86.05
2019-03-12T08:28:07.083Z,86.15
2019-03-12T08:30:52.214Z,85.80
2019-03-12T08:33:53.440Z,85.63
2019-03-12T08:36:33.413Z,85.41
2019-03-12T08:39:20.754Z,85.73
2019-03-12T08:42:24.612Z,85.31
2019-03-12T08:45:04.154Z,85.25
2019-03-12T08:47:51.348Z,85.08
2019-03-12T08:50:43.067Z,85.09
2019-03-12T08:53:30.269Z,84.95
2019-03-12T08:56:20.564Z,84.22
2019-03-12T08:58:58.872Z,83.83
2019-03-12T09:01:47.385Z,82.49
2019-03-12T09:04:35.152Z,80.38
2019-03-12T09:07:30.205Z,80.95
2019-03-12T09:10:17.580Z,81.02
2019-03-12T09:12:52.793Z,79.76
2019-03-12T09:15:30.322Z,79.61
2019-03-12T09:18:30.979Z,78.18
2019-03-12T09:21:25.935Z,77.69
2019-03-12T09:24:14.876Z,76.96
2019-03-12T09:26:53.526Z,75.54
2019-03-12T09:29:30.761Z,76.63
2019-03-12T09:32:25.264Z,76.10
2019-03-12T09:35:12.637Z,74.27
2019-03-12T09:37:57.535Z,73.85
2019-03-12T09:40:35.588Z,73.46
2019-03-12T09:43:35.206Z,73.70
2019-03-12T09:46:24.571Z,72.52
2019-03-12T09:49:12.449Z,72.19
2019-03-12T09:51:46.949Z,71.80
2019-03-12T09:54:34.515Z,72.24
2019-03-12T09:57:26.741Z,71.38
2019-03-12T10:00:20.476Z,70.25
2019-03-12T10:03:07.891Z,70.07
2019-03-12T10:06:02.484Z,70.49
2019-03-12T10:09:00.292Z,69.52
2019-03-12T10:11:41.982Z,70.20
2019-03-12T10:14:29.375Z,69.47
2019-03-12T10:17:14.328Z,69.23
2019-03-12T10:19:56.823Z,68.51
2019-03-12T10:22:44.734Z,68.42
2019-03-12T10:25:33.429Z,67.80
2019-03-12T10:28:17.352Z,67.71
2019-03-12T10:31:00.531Z,68.22
2019-03-12T10:33:44.243Z,68.22
2019-03-12T10:36:44.773Z,67.73
2019-03-12T10:40:08.898Z,67.19
2019-03-12T10:43:00.639Z,67.04
2019-03-12T10:45:41.579Z,66.25
2019-03-12T10:48:11.237Z,66.31
2019-03-12T10:50:41.063Z,65.55
2019-03-12T10:53:10.718Z,64.99
2019-03-12T10:55:40.453Z,64.58
2019-03-12T10:58:10.121Z,65.41
2019-03-12T11:00:40.697Z,64.63
2019-03-12T11:03:10.423Z,63.00
2019-03-12T11:05:45.862Z,62.50
2019-03-12T11:08:11.807Z,61.93
2019-03-12T11:10:41.460Z,62.14
2019-03-12T11:13:14.437Z,62.60
2019-03-12T11:15:42.729Z,62.01
2019-03-12T11:18:12.378Z,62.72
2019-03-12T11:20:42.034Z,62.29
2019-03-12T11:23:12.080Z,60.40
2019-03-12T11:25:41.818Z,60.01
2019-03-12T11:28:11.731Z,59.02
2019-03-12T11:30:41.523Z,59.90
2019-03-12T11:33:11.268Z,58.80
2019-03-12T11:35:41.021Z,59.68
2019-03-12T11:38:10.781Z,58.66
2019-03-12T11:40:40.558Z,58.11
2019-03-12T11:43:10.308Z,57.98
2019-03-12T11:45:40.020Z,59.45
2019-03-12T11:48:10.296Z,58.27
2019-03-12T11:50:40.069Z,56.19
2019-03-12T11:53:09.813Z,57.16
2019-03-12T11:55:39.497Z,57.53
2019-03-12T11:58:09.149Z,57.46
2019-03-12T12:00:43.258Z,56.68
2019-03-12T12:03:13.010Z,57.16
2019-03-12T12:05:42.694Z,57.57
2019-03-12T12:08:12.936Z,57.23
2019-03-12T12:10:44.053Z,57.23
2019-03-12T12:13:13.703Z,56.41
2019-03-12T12:15:43.432Z,56.47
2019-03-12T12:18:13.180Z,56.39
2019-03-12T12:20:42.846Z,56.95
2019-03-12T12:23:12.505Z,56.25
2019-03-12T12:25:42.190Z,55.94
2019-03-12T12:28:11.865Z,54.89
2019-03-12T12:30:41.604Z,55.43
2019-03-12T12:33:11.447Z,55.73
2019-03-12T12:35:41.112Z,55.65
2019-03-12T12:38:10.796Z,54.82
2019-03-12T12:40:40.446Z,55.43
2019-03-12T12:43:10.426Z,55.55
2019-03-12T12:45:40.182Z,54.54
2019-03-12T12:48:10.056Z,54.70
2019-03-12T12:50:39.816Z,53.04
2019-03-12T12:53:09.490Z,55.10
2019-03-12T12:55:39.388Z,54.57
2019-03-12T12:58:09.487Z,53.58
2019-03-12T13:00:39.300Z,53.13
2019-03-12T13:03:09.285Z,51.95
2019-03-12T13:05:38.941Z,52.91
2019-03-12T13:08:09.685Z,53.14
2019-03-12T13:10:39.434Z,53.10
2019-03-12T13:13:09.179Z,51.29
2019-03-12T13:15:39.087Z,52.43
2019-03-12T13:18:08.749Z,52.28
2019-03-12T13:20:38.432Z,51.46
2019-03-12T13:23:08.250Z,51.52
2019-03-12T13:25:37.981Z,51.93
2019-03-12T13:28:07.663Z,50.89
2019-03-12T13:30:37.399Z,48.61
2019-03-12T13:33:07.129Z,49.80
2019-03-12T13:35:36.820Z,49.55
2019-03-12T13:38:06.620Z,47.64
2019-03-12T13:40:36.274Z,48.64
2019-03-12T13:43:06.513Z,48.29
2019-03-12T13:45:36.428Z,46.76
2019-03-12T13:48:06.130Z,46.72
2019-03-12T13:50:36.413Z,44.82
2019-03-12T13:53:06.134Z,45.52
2019-03-12T13:55:35.809Z,46.51
2019-03-12T13:58:05.539Z,45.27
2019-03-12T14:00:35.284Z,44.92
2019-03-12T14:03:05.113Z,45.98
2019-03-12T14:05:34.769Z,47.15
2019-03-12T14:08:05.423Z,47.34
2019-03-12T14:10:35.164Z,46.95
2019-03-12T14:13:05.566Z,46.86
2019-03-12T14:15:35.501Z,46.73
2019-03-12T14:18:05.615Z,46.66
2019-03-12T14:20:46.313Z,46.53
2019-03-12T14:23:24.626Z,47.01
2019-03-12T14:25:54.525Z,46.95
2019-03-12T14:28:24.264Z,47.06
2019-03-12T14:30:54.112Z,47.22
2019-03-12T14:33:23.915Z,47.35
2019-03-12T14:35:53.650Z,47.15
2019-03-12T14:38:23.676Z,46.70
2019-03-12T14:40:53.916Z,47.27
2019-03-12T14:43:23.647Z,46.66
2019-03-12T14:45:53.470Z,46.71
2019-03-12T14:48:47.275Z,46.51
2019-03-12T14:51:32.518Z,46.77
2019-03-12T14:54:02.349Z,47.21
2019-03-12T14:56:32.307Z,47.41
2019-03-12T14:59:02.307Z,47.52
2019-03-12T15:01:32.124Z,48.07
2019-03-12T15:04:01.934Z,48.74
2019-03-12T15:06:31.671Z,48.07
2019-03-12T15:09:01.348Z,48.28
2019-03-12T15:11:32.704Z,47.14
2019-03-12T15:14:02.363Z,47.44
2019-03-12T15:16:32.172Z,48.06
2019-03-12T15:19:01.860Z,48.11
2019-03-12T15:21:31.592Z,47.81
2019-03-12T15:24:02.426Z,47.74
2019-03-12T15:26:32.077Z,48.06
2019-03-12T15:29:01.811Z,47.93
2019-03-12T15:31:31.478Z,47.50
2019-03-12T15:34:02.131Z,47.79
2019-03-12T15:36:31.778Z,48.26
2019-03-12T15:39:01.511Z,48.06
2019-03-12T15:41:32.840Z,48.36
2019-03-12T15:44:02.879Z,49.44
2019-03-12T15:46:32.545Z,49.36
2019-03-12T15:49:02.236Z,50.10
2019-03-12T15:51:31.888Z,50.10
2019-03-12T15:54:01.550Z,49.49
2019-03-12T15:56:31.226Z,49.31
2019-03-12T15:59:00.880Z,49.79
2019-03-12T16:01:30.549Z,50.15
2019-03-12T16:04:00.214Z,50.12
2019-03-12T16:06:29.864Z,50.30
2019-03-12T16:08:59.527Z,50.29
2019-03-12T16:11:31.206Z,50.72
2019-03-12T16:14:00.544Z,50.26
2019-03-12T16:16:30.301Z,50.40
2019-03-12T16:19:00.036Z,50.64
2019-03-12T16:21:29.717Z,50.36
2019-03-12T16:23:59.514Z,50.16
2019-03-12T16:26:29.187Z,50.87
2019-03-12T16:28:58.848Z,50.60
2019-03-12T16:31:28.511Z,50.54
2019-03-12T16:33:58.178Z,50.42
2019-03-12T16:36:28.100Z,50.47
2019-03-12T16:38:57.757Z,49.98
2019-03-12T16:41:27.426Z,49.83
2019-03-12T16:43:57.118Z,48.98
2019-03-12T16:46:26.796Z,49.08
2019-03-12T16:48:59.091Z,49.71
2019-03-12T16:51:29.084Z,49.48
2019-03-12T16:53:58.748Z,49.79
2019-03-12T16:56:28.406Z,49.43
2019-03-12T16:58:58.075Z,49.22
2019-03-12T17:01:28.708Z,49.00
2019-03-12T17:03:58.782Z,49.31
2019-03-12T17:06:28.517Z,48.81
2019-03-12T17:08:58.238Z,49.03
2019-03-12T17:11:27.919Z,49.22
2019-03-12T17:13:57.568Z,48.95
2019-03-12T17:16:27.230Z,48.79
2019-03-12T17:18:57.138Z,48.78
2019-03-12T17:21:26.830Z,48.71
2019-03-12T17:23:57.870Z,49.03
2019-03-12T17:26:28.492Z,48.88
2019-03-12T17:28:58.948Z,48.90
2019-03-12T17:31:28.594Z,48.35
2019-03-12T17:33:58.286Z,48.31
2019-03-12T17:36:28.607Z,48.22
2019-03-12T17:38:58.354Z,46.97
2019-03-12T17:41:28.049Z,47.19
2019-03-12T17:43:58.153Z,46.71
2019-03-12T17:46:27.840Z,47.10
2019-03-12T17:48:57.510Z,46.72
2019-03-12T17:51:27.182Z,45.82
2019-03-12T17:53:56.872Z,46.51
2019-03-12T17:56:26.532Z,46.78
2019-03-12T17:58:56.182Z,46.41
2019-03-12T18:01:30.140Z,46.25
2019-03-12T18:03:57.215Z,46.71
2019-03-12T18:06:26.882Z,46.25
2019-03-12T18:08:56.547Z,47.45
2019-03-12T18:11:26.223Z,48.78
2019-03-12T18:13:56.141Z,49.82
2019-03-12T18:16:25.790Z,50.64
2019-03-12T18:18:55.465Z,51.14
2019-03-12T18:21:25.102Z,51.76
2019-03-12T18:23:54.763Z,51.86
2019-03-12T18:26:24.430Z,51.62
2019-03-12T18:28:54.078Z,50.57
2019-03-12T18:31:23.743Z,51.10
2019-03-12T18:33:53.390Z,51.26
2019-03-12T18:36:23.521Z,50.88
2019-03-12T18:38:54.342Z,50.16
2019-03-12T18:41:24.004Z,50.24
2019-03-12T18:43:53.663Z,50.25
2019-03-12T18:46:23.399Z,49.60
2019-03-12T18:48:53.048Z,49.42
2019-03-12T18:51:22.726Z,49.25
2019-03-12T18:53:52.376Z,49.48
2019-03-12T18:56:22.036Z,49.05
2019-03-12T18:58:51.963Z,48.66
2019-03-12T19:01:21.615Z,48.33
2019-03-12T19:03:51.279Z,47.95
2019-03-12T19:06:21.024Z,47.37
2019-03-12T19:08:50.763Z,47.90
2019-03-12T19:11:20.498Z,48.99
2019-03-12T19:13:50.555Z,51.35
2019-03-12T19:16:20.215Z,54.75
2019-03-12T19:18:50.029Z,59.22
2019-03-12T19:21:19.678Z,59.22
2019-03-12T19:23:49.341Z,61.21
2019-03-12T19:26:19.071Z,61.40
2019-03-12T19:28:49.794Z,62.46
2019-03-12T19:31:41.570Z,63.33
2019-03-12T19:34:14.901Z,64.62
2019-03-12T19:36:44.580Z,65.92
2019-03-12T19:39:15.801Z,66.56
2019-03-12T19:41:47.067Z,67.30
2019-03-12T19:44:16.818Z,67.69
2019-03-12T19:46:46.728Z,67.36
2019-03-12T19:49:16.398Z,67.97
2019-03-12T19:51:46.057Z,68.57
2019-03-12T19:54:17.842Z,68.87
2019-03-12T19:56:47.490Z,69.51
2019-03-12T19:59:17.244Z,69.67
2019-03-12T20:01:49.566Z,70.49
2019-03-12T20:04:19.222Z,70.65
2019-03-12T20:06:48.896Z,71.40
2019-03-12T20:09:30.218Z,72.18
2019-03-12T20:12:34.955Z,73.10
2019-03-12T20:15:39.530Z,72.86
2019-03-12T20:19:03.663Z,73.89
2019-03-12T20:22:02.809Z,74.09
2019-03-12T20:25:02.506Z,74.95
2019-03-12T20:28:24.816Z,75.84
2019-03-12T20:31:38.036Z,76.22
2019-03-12T20:34:37.528Z,76.53
2019-03-12T20:37:42.968Z,76.75
2019-03-12T20:41:18.580Z,76.67
2019-03-12T20:44:31.319Z,76.68
2019-03-12T20:47:39.544Z,76.82
2019-03-12T20:50:32.937Z,76.73
2019-03-12T20:53:45.860Z,76.96
2019-03-12T20:56:52.687Z,77.21
2019-03-12T20:59:57.972Z,78.42
2019-03-12T21:03:13.206Z,79.34
2019-03-12T21:06:25.310Z,77.79
2019-03-12T21:09:42.113Z,77.73
2019-03-12T21:12:33.649Z,76.82
2019-03-12T21:15:39.430Z,77.60
2019-03-12T21:18:49.323Z,77.32
2019-03-12T21:22:03.620Z,77.24
2019-03-12T21:24:53.894Z,78.12
2019-03-12T21:28:15.567Z,78.78
2019-03-12T21:30:45.303Z,79.34
2019-03-12T21:33:15.827Z,79.61
2019-03-12T21:35:45.649Z,79.25
2019-03-12T21:38:15.307Z,79.90
2019-03-12T21:40:45.158Z,80.17
2019-03-12T21:43:14.961Z,80.37
2019-03-12T21:45:45.010Z,80.56
2019-03-12T21:48:14.653Z,80.58
2019-03-12T21:50:44.402Z,80.50
2019-03-12T21:53:14.317Z,81.13
2019-03-12T21:55:44.011Z,81.38
2019-03-12T21:58:13.748Z,81.52
2019-03-12T22:00:43.484Z,81.59
2019-03-12T22:03:16.282Z,81.82
2019-03-12T22:05:45.720Z,81.75
2019-03-12T22:08:15.369Z,81.91
2019-03-12T22:10:45.026Z,82.04
2019-03-12T22:13:14.682Z,82.20
2019-03-12T22:15:44.329Z,82.32
2019-03-12T22:18:14.053Z,82.39
2019-03-12T22:20:43.699Z,82.45
2019-03-12T22:23:22.645Z,82.54
2019-03-12T22:25:52.294Z,82.16
2019-03-12T22:28:21.953Z,82.13
2019-03-12T22:30:51.626Z,82.30
2019-03-12T22:33:21.295Z,82.50
2019-03-12T22:35:50.982Z,82.12
2019-03-12T22:38:20.709Z,82.05
2019-03-12T22:40:50.372Z,82.29
2019-03-12T22:43:20.105Z,82.12
2019-03-12T22:45:50.725Z,81.98
2019-03-12T22:48:20.377Z,81.60
2019-03-12T22:50:50.030Z,81.72
2019-03-12T22:53:19.681Z,81.51
2019-03-12T22:55:49.342Z,81.66
2019-03-12T22:58:18.991Z,81.56
2019-03-12T23:01:06.747Z,81.36
2019-03-12T23:03:54.047Z,81.43
2019-03-12T23:06:41.246Z,81.56
2019-03-12T23:09:28.984Z,81.45
2019-03-12T23:12:00.577Z,81.11
2019-03-12T23:14:31.841Z,81.21
2019-03-12T23:17:01.796Z,81.09
2019-03-12T23:19:31.726Z,81.24
2019-03-12T23:22:01.437Z,81.26
2019-03-12T23:24:31.270Z,81.29
2019-03-12T23:27:01.178Z,81.42
2019-03-12T23:29:30.976Z,81.51
2019-03-12T23:32:00.715Z,81.61
2019-03-12T23:34:30.423Z,81.71
2019-03-12T23:37:00.077Z,81.75
2019-03-12T23:39:29.817Z,81.75
2019-03-12T23:41:59.546Z,81.60
2019-03-12T23:44:29.522Z,81.66
2019-03-12T23:46:59.230Z,81.63
2019-03-12T23:49:29.067Z,81.68
2019-03-12T23:51:58.862Z,81.75
2019-03-12T23:54:28.658Z,81.66
2019-03-12T23:56:58.302Z,81.77
2019-03-12T23:59:28.266Z,81.88
